createdAt,value
2019-04-01T00:01:50.885Z,79.66
2019-04-01T00:04:22.578Z,78.86
2019-04-01T00:06:54.296Z,77.83
2019-04-01T00:09:26.028Z,76.96
2019-04-01T00:11:59.432Z,77.28
2019-04-01T00:14:31.786Z,76.81
2019-04-01T00:17:03.470Z,76.68
2019-04-01T00:19:35.206Z,76.21
2019-04-01T00:22:07.930Z,75.22
2019-04-01T00:24:40.964Z,74.64
2019-04-01T00:27:14.574Z,74.18
2019-04-01T00:29:46.287Z,73.50
2019-04-01T00:32:17.933Z,72.75
2019-04-01T00:34:49.572Z,72.22
2019-04-01T00:37:21.307Z,72.26
2019-04-01T00:39:52.974Z,72.00
2019-04-01T00:42:31.090Z,71.99
2019-04-01T00:45:02.811Z,72.32
2019-04-01T00:47:34.949Z,72.19
2019-04-01T00:50:07.770Z,72.39
2019-04-01T00:52:42.164Z,73.09
2019-04-01T00:55:14.589Z,73.30
2019-04-01T00:57:46.735Z,73.26
2019-04-01T01:00:20.523Z,74.30
2019-04-01T01:02:52.685Z,74.91
2019-04-01T01:05:24.264Z,75.35
2019-04-01T01:07:56.934Z,75.66
2019-04-01T01:10:28.680Z,75.70
2019-04-01T01:13:00.385Z,75.97
2019-04-01T01:15:32.004Z,76.64
2019-04-01T01:18:03.830Z,76.73
2019-04-01T01:20:35.917Z,76.89
2019-04-01T01:23:15.092Z,76.85
2019-04-01T01:25:46.714Z,78.02
2019-04-01T01:28:18.444Z,78.34
2019-04-01T01:30:50.225Z,78.04
2019-04-01T01:33:22.133Z,78.11
2019-04-01T01:35:53.897Z,77.96
2019-04-01T01:38:25.638Z,77.90
2019-04-01T01:40:57.289Z,78.30
2019-04-01T01:43:30.734Z,79.30
2019-04-01T01:46:03.058Z,79.29
2019-04-01T01:48:35.342Z,79.74
2019-04-01T01:51:08.124Z,80.44
2019-04-01T01:53:43.242Z,81.10
2019-04-01T01:56:16.312Z,81.27
2019-04-01T01:58:48.035Z,81.30
2019-04-01T02:01:19.862Z,81.87
2019-04-01T02:03:51.640Z,82.43
2019-04-01T02:06:23.957Z,82.72
2019-04-01T02:08:55.766Z,84.19
2019-04-01T02:11:27.687Z,83.51
2019-04-01T02:13:59.429Z,83.73
2019-04-01T02:16:31.182Z,84.14
2019-04-01T02:19:02.855Z,85.24
2019-04-01T02:21:34.577Z,85.25
2019-04-01T02:24:06.470Z,84.99
2019-04-01T02:26:38.198Z,84.63
2019-04-01T02:29:09.874Z,85.13
2019-04-01T02:31:41.484Z,84.35
2019-04-01T02:34:13.207Z,84.63
2019-04-01T02:36:45.387Z,85.14
2019-04-01T02:39:17.132Z,84.57
2019-04-01T02:41:49.790Z,83.90
2019-04-01T02:44:22.421Z,83.35
2019-04-01T02:46:55.316Z,83.21
2019-04-01T02:49:27.949Z,83.17
2019-04-01T02:51:59.760Z,84.92
2019-04-01T02:54:31.642Z,85.24
2019-04-01T02:57:05.168Z,85.23
2019-04-01T02:59:36.974Z,86.56
2019-04-01T03:02:08.718Z,86.80
2019-04-01T03:04:40.921Z,87.01
2019-04-01T03:07:14.171Z,87.15
2019-04-01T03:09:45.896Z,88.21
2019-04-01T03:12:18.348Z,87.19
2019-04-01T03:14:52.414Z,86.76
2019-04-01T03:17:24.635Z,86.51
2019-04-01T03:19:58.406Z,86.24
2019-04-01T03:22:30.721Z,85.93
2019-04-01T03:25:02.562Z,85.21
2019-04-01T03:27:34.427Z,84.23
2019-04-01T03:30:06.636Z,84.33
2019-04-01T03:32:44.763Z,84.24
2019-04-01T03:35:15.519Z,83.93
2019-04-01T03:37:47.679Z,84.98
2019-04-01T03:40:19.310Z,84.56
2019-04-01T03:42:51.089Z,85.27
2019-04-01T03:45:26.189Z,85.04
2019-04-01T03:47:58.026Z,84.79
2019-04-01T03:50:30.207Z,84.69
2019-04-01T03:53:03.231Z,84.83
2019-04-01T03:55:35.518Z,85.94
2019-04-01T03:58:07.078Z,85.28
2019-04-01T04:00:38.908Z,86.31
2019-04-01T04:03:10.771Z,87.00
2019-04-01T04:05:42.463Z,86.79
2019-04-01T04:08:14.168Z,87.72
2019-04-01T04:10:45.991Z,88.07
2019-04-01T04:13:17.566Z,88.23
2019-04-01T04:15:49.242Z,87.91
2019-04-01T04:18:20.869Z,88.19
2019-04-01T04:20:52.750Z,87.62
2019-04-01T04:23:24.378Z,87.90
2019-04-01T04:25:56.107Z,87.31
2019-04-01T04:28:28.355Z,86.81
2019-04-01T04:31:00.708Z,86.49
2019-04-01T04:33:32.474Z,86.34
2019-04-01T04:36:04.231Z,86.10
2019-04-01T04:38:35.974Z,86.52
2019-04-01T04:41:08.341Z,86.25
2019-04-01T04:43:40.388Z,86.51
2019-04-01T04:46:12.202Z,86.20
2019-04-01T04:48:43.921Z,86.49
2019-04-01T04:51:16.637Z,87.00
2019-04-01T04:53:49.713Z,86.79
2019-04-01T04:56:23.632Z,86.32
2019-04-01T04:58:56.716Z,88.24
2019-04-01T05:01:30.010Z,88.41
2019-04-01T05:04:02.258Z,88.62
2019-04-01T05:06:34.028Z,88.68
2019-04-01T05:09:07.285Z,87.37
2019-04-01T05:11:39.080Z,86.80
2019-04-01T05:14:10.743Z,86.92
2019-04-01T05:16:42.454Z,86.07
2019-04-01T05:19:15.438Z,86.20
2019-04-01T05:21:47.345Z,86.55
2019-04-01T05:24:19.615Z,85.66
2019-04-01T05:26:53.246Z,85.99
2019-04-01T05:29:26.614Z,84.92
2019-04-01T05:32:00.636Z,84.39
2019-04-01T05:34:33.772Z,84.16
2019-04-01T05:37:08.764Z,84.85
2019-04-01T05:39:39.417Z,84.00
2019-04-01T05:42:11.199Z,83.43
2019-04-01T05:44:42.900Z,83.04
2019-04-01T05:47:14.649Z,82.73
2019-04-01T05:49:46.375Z,79.86
2019-04-01T05:52:18.064Z,79.36
2019-04-01T05:54:49.709Z,77.50
2019-04-01T05:57:21.245Z,74.90
2019-04-01T05:59:52.998Z,75.51
2019-04-01T06:02:24.728Z,75.94
2019-04-01T06:04:57.413Z,73.83
2019-04-01T06:07:29.513Z,74.63
2019-04-01T06:10:01.380Z,71.22
2019-04-01T06:12:33.410Z,72.24
2019-04-01T06:15:07.585Z,72.07
2019-04-01T06:17:42.069Z,70.69
2019-04-01T06:20:14.137Z,68.48
2019-04-01T06:22:45.796Z,68.80
2019-04-01T06:25:17.751Z,68.80
2019-04-01T06:27:50.139Z,68.89
2019-04-01T06:30:24.292Z,69.13
2019-04-01T06:32:59.296Z,68.10
2019-04-01T06:35:32.739Z,65.73
2019-04-01T06:38:09.632Z,66.40
2019-04-01T06:40:41.485Z,66.40
2019-04-01T06:43:13.686Z,65.01
2019-04-01T06:45:45.785Z,65.10
2019-04-01T06:48:17.807Z,63.98
2019-04-01T06:50:49.481Z,64.85
2019-04-01T06:53:21.149Z,65.13
2019-04-01T06:55:55.886Z,64.10
2019-04-01T06:58:28.049Z,62.37
2019-04-01T07:00:59.941Z,62.32
2019-04-01T07:03:31.724Z,63.84
2019-04-01T07:06:05.203Z,61.93
2019-04-01T07:08:38.064Z,62.13
2019-04-01T07:11:09.787Z,61.65
2019-04-01T07:13:42.038Z,58.88
2019-04-01T07:16:15.893Z,60.99
2019-04-01T07:18:47.731Z,59.48
2019-04-01T07:21:20.747Z,59.70
2019-04-01T07:23:52.380Z,59.96
2019-04-01T07:26:25.904Z,57.46
2019-04-01T07:28:58.064Z,58.13
2019-04-01T07:31:30.587Z,57.13
2019-04-01T07:34:03.522Z,56.33
2019-04-01T07:36:36.559Z,56.49
2019-04-01T07:39:09.108Z,55.77
2019-04-01T07:41:41.042Z,55.69
2019-04-01T07:44:12.875Z,55.18
2019-04-01T07:46:44.709Z,55.45
2019-04-01T07:49:16.983Z,54.41
2019-04-01T07:51:49.501Z,54.66
2019-04-01T07:54:21.439Z,54.25
2019-04-01T07:56:53.668Z,54.49
2019-04-01T07:59:25.629Z,54.16
2019-04-01T08:01:59.134Z,53.89
2019-04-01T08:04:33.199Z,52.39
2019-04-01T08:07:05.372Z,50.42
2019-04-01T08:09:37.687Z,52.10
2019-04-01T08:12:10.175Z,50.38
2019-04-01T08:14:45.089Z,50.90
2019-04-01T08:17:16.968Z,49.07
2019-04-01T08:19:49.856Z,51.77
2019-04-01T08:22:23.038Z,50.52
2019-04-01T08:24:55.602Z,50.25
2019-04-01T08:27:27.447Z,47.92
2019-04-01T08:29:59.630Z,46.48
2019-04-01T08:32:38.824Z,45.93
2019-04-01T08:35:14.985Z,45.88
2019-04-01T08:37:53.183Z,48.61
2019-04-01T08:40:29.188Z,46.88
2019-04-01T08:43:09.087Z,46.51
2019-04-01T08:45:49.902Z,44.69
2019-04-01T08:48:35.325Z,47.47
2019-04-01T08:51:11.907Z,44.81
2019-04-01T08:53:51.415Z,45.27
2019-04-01T08:56:28.221Z,46.97
2019-04-01T08:59:40.661Z,45.91
2019-04-01T09:02:47.622Z,46.04
2019-04-01T09:05:54.236Z,45.55
2019-04-01T09:08:58.188Z,45.82
2019-04-01T09:11:38.228Z,43.94
2019-04-01T09:14:10.700Z,44.93
2019-04-01T09:16:44.389Z,44.80
2019-04-01T09:19:16.128Z,45.27
2019-04-01T09:21:48.319Z,45.08
2019-04-01T09:24:20.145Z,44.26
2019-04-01T09:26:51.822Z,44.49
2019-04-01T09:29:23.577Z,42.37
2019-04-01T09:31:56.803Z,43.97
2019-04-01T09:34:30.156Z,45.25
2019-04-01T09:37:02.114Z,44.00
2019-04-01T09:39:34.106Z,44.19
2019-04-01T09:42:05.929Z,43.45
2019-04-01T09:44:37.908Z,40.92
2019-04-01T09:47:11.201Z,41.28
2019-04-01T09:49:43.630Z,44.40
2019-04-01T09:52:16.619Z,40.81
2019-04-01T09:54:49.940Z,40.98
2019-04-01T09:57:21.688Z,38.76
2019-04-01T09:59:53.558Z,39.76
2019-04-01T10:02:32.138Z,39.40
2019-04-01T10:05:02.332Z,38.44
2019-04-01T10:07:34.305Z,40.28
2019-04-01T10:10:06.950Z,41.20
2019-04-01T10:12:39.853Z,39.91
2019-04-01T10:15:11.677Z,39.73
2019-04-01T10:17:44.069Z,40.52
2019-04-01T10:20:16.780Z,39.69
2019-04-01T10:22:49.031Z,40.38
2019-04-01T10:25:23.152Z,41.37
2019-04-01T10:27:55.002Z,39.73
2019-04-01T10:30:26.972Z,39.79
2019-04-01T10:33:01.970Z,40.40
2019-04-01T10:35:33.033Z,41.58
2019-04-01T10:38:06.875Z,38.97
2019-04-01T10:40:38.747Z,38.76
2019-04-01T10:43:10.561Z,39.83
2019-04-01T10:45:42.792Z,41.65
2019-04-01T10:48:14.591Z,42.09
2019-04-01T10:50:46.299Z,39.89
2019-04-01T10:53:17.984Z,39.98
2019-04-01T10:55:50.093Z,38.78
2019-04-01T10:58:23.158Z,42.34
2019-04-01T11:00:55.150Z,43.40
2019-04-01T11:03:27.784Z,42.05
2019-04-01T11:06:01.043Z,41.45
2019-04-01T11:08:33.109Z,41.65
2019-04-01T11:11:06.427Z,41.23
2019-04-01T11:13:39.636Z,41.67
2019-04-01T11:16:13.554Z,40.61
2019-04-01T11:18:47.338Z,40.13
2019-04-01T11:21:19.051Z,41.99
2019-04-01T11:23:50.697Z,40.75
2019-04-01T11:26:22.651Z,40.47
2019-04-01T11:28:55.866Z,41.56
2019-04-01T11:31:28.263Z,41.25
2019-04-01T11:33:59.950Z,39.89
2019-04-01T11:36:31.720Z,41.75
2019-04-01T11:39:05.108Z,42.24
2019-04-01T11:41:38.952Z,41.39
2019-04-01T11:44:10.832Z,39.80
2019-04-01T11:46:45.006Z,40.58
2019-04-01T11:49:19.041Z,39.04
2019-04-01T11:51:50.800Z,40.21
2019-04-01T11:54:25.101Z,39.08
2019-04-01T11:56:57.756Z,38.65
2019-04-01T11:59:29.898Z,40.37
2019-04-01T12:02:01.516Z,38.97
2019-04-01T12:04:33.710Z,39.76
2019-04-01T12:07:05.896Z,38.10
2019-04-01T12:09:37.684Z,39.22
2019-04-01T12:12:22.785Z,39.75
2019-04-01T12:14:45.111Z,40.23
2019-04-01T12:17:16.847Z,40.90
2019-04-01T12:19:48.367Z,40.33
2019-04-01T12:22:20.176Z,40.07
2019-04-01T12:24:51.872Z,41.42
2019-04-01T12:27:23.501Z,41.85
2019-04-01T12:29:56.078Z,42.02
2019-04-01T12:32:27.799Z,41.57
2019-04-01T12:34:59.521Z,42.00
2019-04-01T12:37:33.505Z,42.74
2019-04-01T12:40:05.348Z,43.20
2019-04-01T12:42:37.946Z,42.92
2019-04-01T12:45:10.665Z,43.39
2019-04-01T12:47:43.627Z,43.84
2019-04-01T12:50:15.534Z,44.50
2019-04-01T12:52:47.940Z,44.61
2019-04-01T12:55:20.188Z,45.25
2019-04-01T12:57:52.275Z,45.85
2019-04-01T13:00:24.006Z,46.05
2019-04-01T13:02:56.472Z,46.56
2019-04-01T13:05:28.114Z,45.29
2019-04-01T13:08:00.884Z,46.90
2019-04-01T13:10:33.134Z,46.85
2019-04-01T13:13:04.799Z,47.71
2019-04-01T13:15:36.737Z,47.50
2019-04-01T13:18:08.550Z,48.11
2019-04-01T13:20:42.001Z,47.38
2019-04-01T13:23:14.864Z,47.84
2019-04-01T13:25:47.106Z,48.24
2019-04-01T13:28:18.742Z,47.87
2019-04-01T13:30:50.461Z,48.37
2019-04-01T13:33:22.008Z,48.77
2019-04-01T13:35:54.734Z,48.89
2019-04-01T13:38:26.615Z,47.96
2019-04-01T13:40:58.877Z,49.48
2019-04-01T13:43:30.365Z,48.84
2019-04-01T13:46:02.055Z,49.83
2019-04-01T13:48:33.696Z,48.81
2019-04-01T13:51:05.679Z,49.54
2019-04-01T13:53:37.530Z,49.13
2019-04-01T13:56:10.409Z,49.84
2019-04-01T13:58:43.599Z,49.30
2019-04-01T14:01:15.293Z,49.92
2019-04-01T14:03:47.556Z,48.80
2019-04-01T14:06:19.238Z,49.04
2019-04-01T14:08:51.295Z,48.63
2019-04-01T14:11:25.886Z,49.18
2019-04-01T14:13:59.934Z,49.42
2019-04-01T14:16:32.610Z,49.22
2019-04-01T14:19:06.049Z,49.11
2019-04-01T14:21:37.826Z,48.90
2019-04-01T14:24:09.726Z,48.94
2019-04-01T14:26:44.302Z,48.88
2019-04-01T14:29:16.838Z,49.18
2019-04-01T14:31:48.861Z,49.56
2019-04-01T14:34:23.393Z,49.10
2019-04-01T14:36:54.283Z,49.08
2019-04-01T14:39:26.995Z,49.44
2019-04-01T14:41:59.315Z,49.30
2019-04-01T14:44:31.168Z,49.63
2019-04-01T14:47:03.685Z,48.71
2019-04-01T14:49:36.449Z,49.12
2019-04-01T14:52:08.054Z,49.78
2019-04-01T14:54:40.373Z,50.02
2019-04-01T14:57:12.659Z,50.09
2019-04-01T14:59:45.614Z,49.75
2019-04-01T15:02:17.670Z,50.30
2019-04-01T15:04:49.318Z,50.66
2019-04-01T15:07:21.675Z,50.59
2019-04-01T15:09:54.186Z,49.42
2019-04-01T15:12:25.809Z,50.46
2019-04-01T15:14:59.186Z,49.45
2019-04-01T15:17:31.493Z,49.87
2019-04-01T15:20:03.300Z,50.23
2019-04-01T15:22:34.995Z,50.03
2019-04-01T15:25:08.473Z,49.49
2019-04-01T15:27:40.974Z,49.67
2019-04-01T15:30:14.272Z,49.54
2019-04-01T15:32:47.885Z,49.26
2019-04-01T15:35:19.616Z,49.90
2019-04-01T15:37:52.110Z,50.21
2019-04-01T15:40:26.183Z,50.24
2019-04-01T15:42:58.417Z,50.47
2019-04-01T15:45:32.133Z,50.69
2019-04-01T15:48:07.631Z,50.51
2019-04-01T15:50:42.366Z,51.04
2019-04-01T15:53:14.983Z,50.39
2019-04-01T15:55:47.726Z,50.45
2019-04-01T15:58:19.976Z,51.14
2019-04-01T16:00:51.789Z,51.27
2019-04-01T16:03:26.060Z,50.80
2019-04-01T16:05:57.773Z,51.30
2019-04-01T16:08:29.904Z,51.36
2019-04-01T16:11:01.647Z,51.71
2019-04-01T16:13:35.315Z,51.60
2019-04-01T16:16:09.803Z,51.16
2019-04-01T16:18:42.696Z,51.27
2019-04-01T16:21:14.395Z,50.79
2019-04-01T16:23:47.290Z,50.87
2019-04-01T16:26:20.787Z,50.91
2019-04-01T16:28:52.390Z,51.08
2019-04-01T16:31:24.184Z,51.28
2019-04-01T16:33:56.271Z,51.50
2019-04-01T16:36:27.994Z,52.16
2019-04-01T16:39:00.577Z,52.01
2019-04-01T16:41:36.803Z,51.95
2019-04-01T16:44:08.518Z,52.20
2019-04-01T16:46:41.900Z,51.89
2019-04-01T16:49:15.231Z,52.13
2019-04-01T16:51:50.649Z,52.05
2019-04-01T16:54:23.254Z,52.41
2019-04-01T16:56:54.968Z,52.48
2019-04-01T16:59:28.051Z,52.49
2019-04-01T17:01:59.851Z,53.12
2019-04-01T17:04:34.479Z,53.13
2019-04-01T17:07:06.128Z,53.50
2019-04-01T17:09:37.848Z,53.16
2019-04-01T17:12:10.685Z,53.29
2019-04-01T17:14:42.711Z,53.24
2019-04-01T17:17:14.756Z,53.56
2019-04-01T17:19:46.586Z,53.22
2019-04-01T17:22:18.331Z,53.18
2019-04-01T17:24:50.549Z,53.63
2019-04-01T17:27:39.844Z,53.43
2019-04-01T17:30:13.744Z,53.16
2019-04-01T17:32:45.510Z,52.70
2019-04-01T17:35:17.627Z,52.83
2019-04-01T17:37:49.400Z,52.63
2019-04-01T17:40:21.581Z,53.07
2019-04-01T17:42:53.167Z,53.06
2019-04-01T17:45:41.022Z,53.17
2019-04-01T17:48:13.464Z,53.24
2019-04-01T17:50:45.210Z,53.22
2019-04-01T17:53:17.811Z,53.29
2019-04-01T17:55:49.688Z,53.50
2019-04-01T17:58:21.528Z,53.08
2019-04-01T18:00:56.657Z,53.62
2019-04-01T18:03:28.160Z,53.82
2019-04-01T18:06:00.801Z,53.59
2019-04-01T18:08:34.104Z,53.32
2019-04-01T18:11:06.445Z,53.37
2019-04-01T18:13:42.407Z,53.43
2019-04-01T18:16:14.606Z,53.59
2019-04-01T18:18:46.941Z,53.32
2019-04-01T18:21:18.720Z,53.26
2019-04-01T18:23:54.117Z,53.56
2019-04-01T18:26:27.809Z,53.16
2019-04-01T18:28:59.506Z,53.43
2019-04-01T18:31:32.299Z,53.48
2019-04-01T18:34:04.457Z,53.22
2019-04-01T18:36:36.093Z,53.36
2019-04-01T18:39:09.980Z,53.00
2019-04-01T18:41:41.621Z,53.20
2019-04-01T18:44:13.593Z,53.16
2019-04-01T18:46:46.142Z,53.49
2019-04-01T18:49:18.127Z,54.24
2019-04-01T18:51:49.800Z,54.48
2019-04-01T18:54:22.185Z,54.93
2019-04-01T18:56:54.430Z,55.03
2019-04-01T18:59:26.311Z,54.95
2019-04-01T19:01:58.082Z,54.62
2019-04-01T19:04:29.869Z,54.28
2019-04-01T19:07:01.703Z,54.08
2019-04-01T19:09:33.919Z,53.91
2019-04-01T19:12:08.305Z,53.75
2019-04-01T19:14:40.663Z,53.62
2019-04-01T19:17:14.110Z,53.62
2019-04-01T19:19:48.591Z,53.41
2019-04-01T19:22:20.728Z,53.22
2019-04-01T19:24:52.518Z,53.11
2019-04-01T19:27:24.785Z,53.40
2019-04-01T19:29:56.521Z,54.06
2019-04-01T19:32:29.301Z,54.25
2019-04-01T19:35:01.165Z,54.88
2019-04-01T19:37:33.831Z,56.25
2019-04-01T19:40:06.350Z,56.89
2019-04-01T19:42:39.642Z,57.46
2019-04-01T19:45:13.145Z,57.67
2019-04-01T19:47:52.366Z,57.67
2019-04-01T19:50:25.241Z,57.67
2019-04-01T19:52:57.010Z,58.15
2019-04-01T19:55:29.739Z,58.99
2019-04-01T19:58:04.901Z,59.61
2019-04-01T20:00:35.588Z,59.50
2019-04-01T20:03:07.287Z,59.37
2019-04-01T20:05:39.574Z,59.37
2019-04-01T20:08:14.138Z,59.95
2019-04-01T20:10:46.636Z,60.37
2019-04-01T20:13:18.460Z,60.65
2019-04-01T20:15:50.072Z,60.76
2019-04-01T20:18:23.966Z,61.29
2019-04-01T20:20:55.528Z,60.58
2019-04-01T20:23:27.118Z,59.57
2019-04-01T20:25:59.077Z,59.85
2019-04-01T20:28:31.994Z,60.24
2019-04-01T20:31:03.676Z,60.02
2019-04-01T20:33:35.486Z,59.39
2019-04-01T20:36:07.595Z,58.26
2019-04-01T20:38:39.405Z,58.08
2019-04-01T20:41:11.156Z,58.28
2019-04-01T20:43:44.224Z,58.07
2019-04-01T20:46:16.567Z,58.60
2019-04-01T20:48:48.185Z,58.68
2019-04-01T20:51:21.349Z,58.15
2019-04-01T20:53:56.393Z,58.40
2019-04-01T20:56:28.078Z,59.09
2019-04-01T20:58:59.704Z,59.40
2019-04-01T21:01:31.283Z,59.88
2019-04-01T21:04:03.115Z,60.09
2019-04-01T21:06:36.104Z,60.47
2019-04-01T21:09:10.055Z,60.19
2019-04-01T21:11:42.762Z,60.19
2019-04-01T21:14:14.315Z,60.76
2019-04-01T21:16:45.963Z,60.68
2019-04-01T21:19:17.610Z,60.80
2019-04-01T21:21:49.395Z,61.23
2019-04-01T21:24:20.928Z,61.22
2019-04-01T21:26:52.527Z,61.51
2019-04-01T21:29:24.261Z,62.87
2019-04-01T21:31:56.025Z,63.67
2019-04-01T21:34:27.611Z,63.81
2019-04-01T21:36:59.314Z,63.94
2019-04-01T21:39:30.919Z,63.93
2019-04-01T21:42:02.555Z,64.44
2019-04-01T21:44:35.472Z,64.93
2019-04-01T21:47:07.202Z,65.73
2019-04-01T21:49:40.253Z,66.69
2019-04-01T21:52:12.014Z,67.42
2019-04-01T21:54:43.650Z,67.50
2019-04-01T21:57:15.352Z,67.49
2019-04-01T21:59:47.137Z,68.25
2019-04-01T22:02:18.774Z,68.25
2019-04-01T22:04:50.714Z,68.83
2019-04-01T22:07:22.584Z,68.66
2019-04-01T22:09:54.311Z,67.70
2019-04-01T22:12:26.986Z,68.34
2019-04-01T22:15:01.669Z,68.66
2019-04-01T22:17:33.660Z,68.66
2019-04-01T22:20:07.480Z,68.86
2019-04-01T22:22:39.105Z,69.37
2019-04-01T22:25:11.033Z,69.37
2019-04-01T22:27:42.762Z,69.41
2019-04-01T22:30:17.093Z,69.42
2019-04-01T22:32:50.046Z,69.42
2019-04-01T22:35:22.880Z,70.34
2019-04-01T22:37:54.455Z,70.89
2019-04-01T22:40:26.234Z,70.58
2019-04-01T22:42:58.122Z,71.05
2019-04-01T22:45:29.798Z,70.16
2019-04-01T22:48:01.398Z,69.96
2019-04-01T22:50:33.710Z,69.57
2019-04-01T22:53:05.447Z,69.68
2019-04-01T22:55:37.114Z,69.57
2019-04-01T22:58:08.948Z,69.65
2019-04-01T23:00:40.749Z,70.26
2019-04-01T23:03:12.551Z,70.30
2019-04-01T23:05:44.195Z,70.03
2019-04-01T23:08:15.961Z,69.84
2019-04-01T23:10:47.688Z,69.53
2019-04-01T23:13:20.163Z,69.20
2019-04-01T23:15:52.340Z,69.79
2019-04-01T23:18:24.141Z,69.13
2019-04-01T23:20:56.426Z,69.29
2019-04-01T23:23:28.368Z,68.57
2019-04-01T23:26:00.850Z,67.68
2019-04-01T23:28:32.524Z,67.77
2019-04-01T23:31:04.207Z,67.76
2019-04-01T23:33:35.958Z,67.67
2019-04-01T23:36:07.794Z,67.53
2019-04-01T23:38:40.526Z,67.69
2019-04-01T23:41:12.231Z,68.17
2019-04-01T23:43:44.709Z,67.65
2019-04-01T23:46:16.556Z,67.54
2019-04-01T23:48:48.137Z,67.56
2019-04-01T23:51:19.874Z,66.96
2019-04-01T23:53:51.457Z,66.70
2019-04-01T23:56:24.313Z,66.20
2019-04-01T23:58:55.926Z,66.40
